createdAt,value
2018-02-04T00:00:48.621Z,89.11
2018-02-04T00:01:48.599Z,87.69
2018-02-04T00:02:48.577Z,87.31
2018-02-04T00:03:48.560Z,87.31
2018-02-04T00:04:48.540Z,89.87
2018-02-04T00:05:48.523Z,88.26
2018-02-04T00:06:48.507Z,87.12
2018-02-04T00:07:48.489Z,87.69
2018-02-04T00:08:48.469Z,88.26
2018-02-04T00:09:48.453Z,88.45
2018-02-04T00:10:48.434Z,88.45
2018-02-04T00:11:48.415Z,88.64
2018-02-04T00:12:48.398Z,88.45
2018-02-04T00:13:48.381Z,88.45
2018-02-04T00:14:48.365Z,88.45
2018-02-04T00:15:48.351Z,89.30
2018-02-04T00:16:48.327Z,89.58
2018-02-04T00:17:48.311Z,89.87
2018-02-04T00:18:48.291Z,90.06
2018-02-04T00:19:48.274Z,87.59
2018-02-04T00:20:48.259Z,86.65
2018-02-04T00:21:48.239Z,86.46
2018-02-04T00:22:48.221Z,87.40
2018-02-04T00:23:48.203Z,87.40
2018-02-04T00:24:48.190Z,87.78
2018-02-04T00:25:48.173Z,87.21
2018-02-04T00:26:48.150Z,86.93
2018-02-04T00:27:48.133Z,85.80
2018-02-04T00:28:48.158Z,86.93
2018-02-04T00:29:48.095Z,86.93
2018-02-04T00:30:48.081Z,87.21
2018-02-04T00:31:48.062Z,88.17
2018-02-04T00:32:48.047Z,88.07
2018-02-04T00:33:48.025Z,88.17
2018-02-04T00:34:48.007Z,90.53
2018-02-04T00:35:47.990Z,89.20
2018-02-04T00:36:47.971Z,90.81
2018-02-04T00:37:47.953Z,89.96
2018-02-04T00:38:47.938Z,89.11
2018-02-04T00:39:47.920Z,89.30
2018-02-04T00:40:47.902Z,89.68
2018-02-04T00:41:47.887Z,90.06
2018-02-04T00:42:47.868Z,88.26
2018-02-04T00:43:47.852Z,89.77
2018-02-04T00:44:47.831Z,88.26
2018-02-04T00:45:47.814Z,88.35
2018-02-04T00:46:47.802Z,89.20
2018-02-04T00:47:47.783Z,88.64
2018-02-04T00:48:47.763Z,89.01
2018-02-04T00:49:47.747Z,89.11
2018-02-04T00:50:47.723Z,89.01
2018-02-04T00:51:47.708Z,89.20
2018-02-04T00:52:47.687Z,89.39
2018-02-04T00:53:47.669Z,89.77
2018-02-04T00:54:47.656Z,89.92
2018-02-04T00:55:47.633Z,90.20
2018-02-04T00:56:47.615Z,90.63
2018-02-04T00:57:47.602Z,90.63
2018-02-04T00:58:47.581Z,90.58
2018-02-04T00:59:47.562Z,90.39
2018-02-04T01:00:47.545Z,90.58
2018-02-04T01:01:47.527Z,91.15
2018-02-04T01:02:47.510Z,90.67
2018-02-04T01:03:47.500Z,90.86
2018-02-04T01:04:47.474Z,90.86
2018-02-04T01:05:47.458Z,90.58
2018-02-04T01:06:47.441Z,91.24
2018-02-04T01:07:47.419Z,91.34
2018-02-04T01:08:47.408Z,90.48
2018-02-04T01:09:47.386Z,90.67
2018-02-04T01:10:47.373Z,91.76
2018-02-04T01:11:47.350Z,91.10
2018-02-04T01:12:47.340Z,91.76
2018-02-04T01:13:47.315Z,90.81
2018-02-04T01:14:47.300Z,89.68
2018-02-04T01:15:47.277Z,90.53
2018-02-04T01:16:47.260Z,89.49
2018-02-04T01:17:47.239Z,89.49
2018-02-04T01:18:47.223Z,91.29
2018-02-04T01:19:47.203Z,91.67
2018-02-04T01:20:47.188Z,90.81
2018-02-04T01:21:47.170Z,90.91
2018-02-04T01:22:47.150Z,90.72
2018-02-04T01:23:47.136Z,91.00
2018-02-04T01:24:47.116Z,93.27
2018-02-04T01:25:47.094Z,92.14
2018-02-04T01:26:47.079Z,92.71
2018-02-04T01:27:47.062Z,92.90
2018-02-04T01:28:47.046Z,91.86
2018-02-04T01:29:47.030Z,91.76
2018-02-04T01:30:47.010Z,91.15
2018-02-04T01:31:46.990Z,92.10
2018-02-04T01:32:46.970Z,91.86
2018-02-04T01:33:46.951Z,92.38
2018-02-04T01:34:46.936Z,92.85
2018-02-04T01:35:46.917Z,92.94
2018-02-04T01:36:46.904Z,93.04
2018-02-04T01:37:46.880Z,93.23
2018-02-04T01:38:46.868Z,93.23
2018-02-04T01:39:46.843Z,92.57
2018-02-04T01:40:46.824Z,92.47
2018-02-04T01:41:46.805Z,92.85
2018-02-04T01:42:46.790Z,93.32
2018-02-04T01:43:46.826Z,92.85
2018-02-04T01:44:46.756Z,92.76
2018-02-04T01:45:46.755Z,93.04
2018-02-04T01:46:46.716Z,93.04
2018-02-04T01:47:46.705Z,93.32
2018-02-04T01:48:46.679Z,93.42
2018-02-04T01:49:46.661Z,92.19
2018-02-04T01:50:46.647Z,91.53
2018-02-04T01:51:46.631Z,91.62
2018-02-04T01:52:46.613Z,91.05
2018-02-04T01:53:46.588Z,91.91
2018-02-04T01:54:46.572Z,91.53
2018-02-04T01:55:46.560Z,91.72
2018-02-04T01:56:46.539Z,91.91
2018-02-04T01:57:46.516Z,92.19
2018-02-04T01:58:46.498Z,92.10
2018-02-04T01:59:46.482Z,91.91
2018-02-04T02:00:46.469Z,92.00
2018-02-04T02:01:46.447Z,92.29
2018-02-04T02:02:46.432Z,92.85
2018-02-04T02:03:46.408Z,92.47
2018-02-04T02:04:46.392Z,94.37
2018-02-04T02:05:46.376Z,93.23
2018-02-04T02:06:46.353Z,92.47
2018-02-04T02:07:46.335Z,92.19
2018-02-04T02:08:46.320Z,91.34
2018-02-04T02:09:46.297Z,91.34
2018-02-04T02:10:46.286Z,91.72
2018-02-04T02:11:46.265Z,93.04
2018-02-04T02:12:46.243Z,91.53
2018-02-04T02:13:46.226Z,91.72
2018-02-04T02:14:46.210Z,90.30
2018-02-04T02:15:46.189Z,90.01
2018-02-04T02:16:46.173Z,90.20
2018-02-04T02:17:46.151Z,89.82
2018-02-04T02:18:46.133Z,91.05
2018-02-04T02:19:46.117Z,90.67
2018-02-04T02:20:46.099Z,90.11
2018-02-04T02:21:46.080Z,89.82
2018-02-04T02:22:46.062Z,90.58
2018-02-04T02:23:46.055Z,91.24
2018-02-04T02:24:46.024Z,91.15
2018-02-04T02:25:46.009Z,91.05
2018-02-04T02:26:45.988Z,92.10
2018-02-04T02:27:45.971Z,92.29
2018-02-04T02:28:45.953Z,91.62
2018-02-04T02:29:45.932Z,93.13
2018-02-04T02:30:45.917Z,92.00
2018-02-04T02:31:45.902Z,90.86
2018-02-04T02:32:45.877Z,93.46
2018-02-04T02:33:45.860Z,90.77
2018-02-04T02:34:45.843Z,89.82
2018-02-04T02:35:45.829Z,88.97
2018-02-04T02:36:45.815Z,90.30
2018-02-04T02:37:45.790Z,89.44
2018-02-04T02:38:45.770Z,90.11
2018-02-04T02:39:45.753Z,90.01
2018-02-04T02:40:45.734Z,89.82
2018-02-04T02:41:45.716Z,89.82
2018-02-04T02:42:45.697Z,91.34
2018-02-04T02:43:45.681Z,90.67
2018-02-04T02:44:45.667Z,91.05
2018-02-04T02:45:45.646Z,91.72
2018-02-04T02:46:45.623Z,91.62
2018-02-04T02:47:45.606Z,91.91
2018-02-04T02:48:45.592Z,91.62
2018-02-04T02:49:45.570Z,91.62
2018-02-04T02:50:45.550Z,92.10
2018-02-04T02:51:45.532Z,92.19
2018-02-04T02:52:45.514Z,92.66
2018-02-04T02:53:45.500Z,92.19
2018-02-04T02:54:45.479Z,93.04
2018-02-04T02:55:45.466Z,92.76
2018-02-04T02:56:45.441Z,92.94
2018-02-04T02:57:45.424Z,92.85
2018-02-04T02:58:45.404Z,92.85
2018-02-04T02:59:45.385Z,92.57
2018-02-04T03:00:45.366Z,92.85
2018-02-04T03:01:45.353Z,93.13
2018-02-04T03:02:45.332Z,93.51
2018-02-04T03:03:45.312Z,93.42
2018-02-04T03:04:45.294Z,93.51
2018-02-04T03:05:45.275Z,93.42
2018-02-04T03:06:45.256Z,92.90
2018-02-04T03:07:45.238Z,93.18
2018-02-04T03:08:45.218Z,93.75
2018-02-04T03:09:45.212Z,93.51
2018-02-04T03:10:45.184Z,94.27
2018-02-04T03:11:45.168Z,92.85
2018-02-04T03:12:45.146Z,92.19
2018-02-04T03:13:45.132Z,91.72
2018-02-04T03:14:45.109Z,91.81
2018-02-04T03:15:45.094Z,91.72
2018-02-04T03:16:45.072Z,91.34
2018-02-04T03:17:45.060Z,91.72
2018-02-04T03:18:45.036Z,91.15
2018-02-04T03:19:45.018Z,91.81
2018-02-04T03:20:44.998Z,92.14
2018-02-04T03:21:44.983Z,92.05
2018-02-04T03:22:44.962Z,92.94
2018-02-04T03:23:44.945Z,92.94
2018-02-04T03:24:44.924Z,92.52
2018-02-04T03:25:44.907Z,92.61
2018-02-04T03:26:44.889Z,92.85
2018-02-04T03:27:44.876Z,93.09
2018-02-04T03:28:44.860Z,93.32
2018-02-04T03:29:44.837Z,93.23
2018-02-04T03:30:44.814Z,93.47
2018-02-04T03:31:44.798Z,93.09
2018-02-04T03:32:44.778Z,93.94
2018-02-04T03:33:44.759Z,93.51
2018-02-04T03:34:44.739Z,93.28
2018-02-04T03:35:44.725Z,93.04
2018-02-04T03:36:44.704Z,93.13
2018-02-04T03:37:44.687Z,93.32
2018-02-04T03:38:44.672Z,93.32
2018-02-04T03:39:44.647Z,92.99
2018-02-04T03:40:44.636Z,93.99
2018-02-04T03:41:44.619Z,93.28
2018-02-04T03:42:44.593Z,93.09
2018-02-04T03:43:44.574Z,92.61
2018-02-04T03:44:44.561Z,93.61
2018-02-04T03:45:44.537Z,93.37
2018-02-04T03:46:44.518Z,93.28
2018-02-04T03:47:44.499Z,92.52
2018-02-04T03:48:44.481Z,93.32
2018-02-04T03:49:44.463Z,92.80
2018-02-04T03:50:44.452Z,91.67
2018-02-04T03:51:44.430Z,91.67
2018-02-04T03:52:44.406Z,91.86
2018-02-04T03:53:44.388Z,92.05
2018-02-04T03:54:44.369Z,92.24
2018-02-04T03:55:44.360Z,92.71
2018-02-04T03:56:44.331Z,93.28
2018-02-04T03:57:44.314Z,92.99
2018-02-04T03:58:44.299Z,94.13
2018-02-04T03:59:44.278Z,93.56
2018-02-04T04:00:44.265Z,93.28
2018-02-04T04:01:44.245Z,92.71
2018-02-04T04:02:44.222Z,92.71
2018-02-04T04:03:44.204Z,94.60
2018-02-04T04:04:44.183Z,93.80
2018-02-04T04:05:44.166Z,92.24
2018-02-04T04:06:44.151Z,91.77
2018-02-04T04:07:44.131Z,92.24
2018-02-04T04:08:44.108Z,92.14
2018-02-04T04:09:44.096Z,92.71
2018-02-04T04:10:44.071Z,92.80
2018-02-04T04:11:44.055Z,92.52
2018-02-04T04:12:44.037Z,92.80
2018-02-04T04:13:44.016Z,92.61
2018-02-04T04:14:43.997Z,93.28
2018-02-04T04:15:43.985Z,93.75
2018-02-04T04:16:43.959Z,95.26
2018-02-04T04:17:43.953Z,95.03
2018-02-04T04:18:43.931Z,93.66
2018-02-04T04:19:43.905Z,92.85
2018-02-04T04:20:43.885Z,91.72
2018-02-04T04:21:43.871Z,91.72
2018-02-04T04:22:43.848Z,92.00
2018-02-04T04:23:43.829Z,93.70
2018-02-04T04:24:43.818Z,93.89
2018-02-04T04:25:43.800Z,94.37
2018-02-04T04:26:43.778Z,96.26
2018-02-04T04:27:43.753Z,91.81
2018-02-04T04:28:43.742Z,90.77
2018-02-04T04:29:43.723Z,91.05
2018-02-04T04:30:43.700Z,91.05
2018-02-04T04:31:43.681Z,90.48
2018-02-04T04:32:43.666Z,90.67
2018-02-04T04:33:43.641Z,90.58
2018-02-04T04:34:43.623Z,90.96
2018-02-04T04:35:43.608Z,91.29
2018-02-04T04:36:43.586Z,91.01
2018-02-04T04:37:43.566Z,91.77
2018-02-04T04:38:43.555Z,91.58
2018-02-04T04:39:43.531Z,91.96
2018-02-04T04:40:43.511Z,92.80
2018-02-04T04:41:43.495Z,92.80
2018-02-04T04:42:43.473Z,93.37
2018-02-04T04:43:43.456Z,93.28
2018-02-04T04:44:43.442Z,93.47
2018-02-04T04:45:43.422Z,93.94
2018-02-04T04:46:43.400Z,94.60
2018-02-04T04:47:43.379Z,93.94
2018-02-04T04:48:43.361Z,93.75
2018-02-04T04:49:43.341Z,93.75
2018-02-04T04:50:43.324Z,93.09
2018-02-04T04:51:43.307Z,93.85
2018-02-04T04:52:43.286Z,93.85
2018-02-04T04:53:43.266Z,94.04
2018-02-04T04:54:43.249Z,94.04
2018-02-04T04:55:43.231Z,94.32
2018-02-04T04:56:43.214Z,94.32
2018-02-04T04:57:43.197Z,94.04
2018-02-04T04:58:43.173Z,94.23
2018-02-04T04:59:43.176Z,93.66
2018-02-04T05:00:43.136Z,94.32
2018-02-04T05:01:43.122Z,94.13
2018-02-04T05:02:43.099Z,93.66
2018-02-04T05:03:43.080Z,94.23
2018-02-04T05:04:43.059Z,94.13
2018-02-04T05:05:43.050Z,94.13
2018-02-04T05:06:43.023Z,93.47
2018-02-04T05:07:43.004Z,94.23
2018-02-04T05:08:42.985Z,93.66
2018-02-04T05:09:42.966Z,93.66
2018-02-04T05:10:42.948Z,93.66
2018-02-04T05:11:42.929Z,93.85
2018-02-04T05:12:42.908Z,94.13
2018-02-04T05:13:42.891Z,93.37
2018-02-04T05:14:42.879Z,93.66
2018-02-04T05:15:42.860Z,93.66
2018-02-04T05:16:42.841Z,95.93
2018-02-04T05:17:42.818Z,94.51
2018-02-04T05:18:42.798Z,94.32
2018-02-04T05:19:42.780Z,93.66
2018-02-04T05:20:42.761Z,93.18
2018-02-04T05:21:42.741Z,93.47
2018-02-04T05:22:42.725Z,93.66
2018-02-04T05:23:42.705Z,93.56
2018-02-04T05:24:42.687Z,93.85
2018-02-04T05:25:42.666Z,93.85
2018-02-04T05:26:42.648Z,93.28
2018-02-04T05:27:42.629Z,93.94
2018-02-04T05:28:42.616Z,94.51
2018-02-04T05:29:42.595Z,94.42
2018-02-04T05:30:42.577Z,94.60
2018-02-04T05:31:42.554Z,94.13
2018-02-04T05:32:42.545Z,93.56
2018-02-04T05:33:42.518Z,94.32
2018-02-04T05:34:42.498Z,93.94
2018-02-04T05:35:42.483Z,94.23
2018-02-04T05:36:42.469Z,94.23
2018-02-04T05:37:42.449Z,94.42
2018-02-04T05:38:42.425Z,94.51
2018-02-04T05:39:42.402Z,94.51
2018-02-04T05:40:42.390Z,94.98
2018-02-04T05:41:42.364Z,95.17
2018-02-04T05:42:42.347Z,95.17
2018-02-04T05:43:42.333Z,95.55
2018-02-04T05:44:42.307Z,96.02
2018-02-04T05:45:42.294Z,95.93
2018-02-04T05:46:42.270Z,95.64
2018-02-04T05:47:42.252Z,96.21
2018-02-04T05:48:42.230Z,95.74
2018-02-04T05:49:42.219Z,94.98
2018-02-04T05:50:42.194Z,95.07
2018-02-04T05:51:42.175Z,95.45
2018-02-04T05:52:42.158Z,95.45
2018-02-04T05:53:42.139Z,96.88
2018-02-04T05:54:42.119Z,95.83
2018-02-04T05:55:42.155Z,97.63
2018-02-04T05:56:42.087Z,96.69
2018-02-04T05:57:42.062Z,94.98
2018-02-04T05:58:42.042Z,95.07
2018-02-04T05:59:42.030Z,95.93
2018-02-04T06:00:42.005Z,95.07
2018-02-04T06:01:41.984Z,94.23
2018-02-04T06:02:41.971Z,94.51
2018-02-04T06:03:41.949Z,95.36
2018-02-04T06:04:41.928Z,96.50
2018-02-04T06:05:41.915Z,99.05
2018-02-04T06:06:41.896Z,98.10
2018-02-04T06:07:41.870Z,95.17
2018-02-04T06:08:41.852Z,96.02
2018-02-04T06:09:41.838Z,95.88
2018-02-04T06:10:41.814Z,95.21
2018-02-04T06:11:41.800Z,94.08
2018-02-04T06:12:41.778Z,92.85
2018-02-04T06:13:41.756Z,92.00
2018-02-04T06:14:41.740Z,91.01
2018-02-04T06:15:41.720Z,91.96
2018-02-04T06:16:41.705Z,91.67
2018-02-04T06:17:41.681Z,92.80
2018-02-04T06:18:41.666Z,91.77
2018-02-04T06:19:41.641Z,91.86
2018-02-04T06:20:41.630Z,92.33
2018-02-04T06:21:41.603Z,92.80
2018-02-04T06:22:41.586Z,93.09
2018-02-04T06:23:41.571Z,93.18
2018-02-04T06:24:41.556Z,94.13
2018-02-04T06:25:41.537Z,94.32
2018-02-04T06:26:41.509Z,96.02
2018-02-04T06:27:41.495Z,96.21
2018-02-04T06:28:41.475Z,95.45
2018-02-04T06:29:41.448Z,96.12
2018-02-04T06:30:41.443Z,96.21
2018-02-04T06:31:41.416Z,95.55
2018-02-04T06:32:41.395Z,95.07
2018-02-04T06:33:41.384Z,95.17
2018-02-04T06:34:41.356Z,95.26
2018-02-04T06:35:41.337Z,95.74
2018-02-04T06:36:41.317Z,95.97
2018-02-04T06:37:41.298Z,96.64
2018-02-04T06:38:41.279Z,96.64
2018-02-04T06:39:41.262Z,96.54
2018-02-04T06:40:41.246Z,97.49
2018-02-04T06:41:41.220Z,98.33
2018-02-04T06:42:41.207Z,97.01
2018-02-04T06:43:41.181Z,96.26
2018-02-04T06:44:41.168Z,95.93
2018-02-04T06:45:41.144Z,95.88
2018-02-04T06:46:41.131Z,96.07
2018-02-04T06:47:41.106Z,96.83
2018-02-04T06:48:41.089Z,96.73
2018-02-04T06:49:41.077Z,96.45
2018-02-04T06:50:41.054Z,96.35
2018-02-04T06:51:41.029Z,96.69
2018-02-04T06:52:41.011Z,96.83
2018-02-04T06:53:40.993Z,96.16
2018-02-04T06:54:40.970Z,96.83
2018-02-04T06:55:40.960Z,96.92
2018-02-04T06:56:40.937Z,96.64
2018-02-04T06:57:40.913Z,97.39
2018-02-04T06:58:40.900Z,97.25
2018-02-04T06:59:40.886Z,97.34
2018-02-04T07:00:40.855Z,98.58
2018-02-04T07:01:40.838Z,97.82
2018-02-04T07:02:40.818Z,96.02
2018-02-04T07:03:40.799Z,95.36
2018-02-04T07:04:40.778Z,95.36
2018-02-04T07:05:40.759Z,96.21
2018-02-04T07:06:40.744Z,95.83
2018-02-04T07:07:40.722Z,95.36
2018-02-04T07:08:40.702Z,95.55
2018-02-04T07:09:40.697Z,95.74
2018-02-04T07:10:40.665Z,95.55
2018-02-04T07:11:40.643Z,96.21
2018-02-04T07:12:40.678Z,95.64
2018-02-04T07:13:40.612Z,96.12
2018-02-04T07:14:40.592Z,96.16
2018-02-04T07:15:40.567Z,96.12
2018-02-04T07:16:40.553Z,95.93
2018-02-04T07:17:40.532Z,96.40
2018-02-04T07:18:40.515Z,96.21
2018-02-04T07:19:40.490Z,95.93
2018-02-04T07:20:40.475Z,95.36
2018-02-04T07:21:40.449Z,95.07
2018-02-04T07:22:40.432Z,94.98
2018-02-04T07:23:40.412Z,95.55
2018-02-04T07:24:40.392Z,95.55
2018-02-04T07:25:40.373Z,95.17
2018-02-04T07:26:40.357Z,95.83
2018-02-04T07:27:40.335Z,95.17
2018-02-04T07:28:40.317Z,94.60
2018-02-04T07:29:40.297Z,94.70
2018-02-04T07:30:40.279Z,94.98
2018-02-04T07:31:40.266Z,94.51
2018-02-04T07:32:40.240Z,94.60
2018-02-04T07:33:40.227Z,93.37
2018-02-04T07:34:40.203Z,93.28
2018-02-04T07:35:40.202Z,93.47
2018-02-04T07:36:40.163Z,93.85
2018-02-04T07:37:40.145Z,94.04
2018-02-04T07:38:40.127Z,94.23
2018-02-04T07:39:40.108Z,93.85
2018-02-04T07:40:40.094Z,94.42
2018-02-04T07:41:40.070Z,94.42
2018-02-04T07:42:40.057Z,93.85
2018-02-04T07:43:40.034Z,93.66
2018-02-04T07:44:40.017Z,93.75
2018-02-04T07:45:39.996Z,93.94
2018-02-04T07:46:39.977Z,94.13
2018-02-04T07:47:39.962Z,93.94
2018-02-04T07:48:39.942Z,93.85
2018-02-04T07:49:39.922Z,93.37
2018-02-04T07:50:39.900Z,93.09
2018-02-04T07:51:39.881Z,92.99
2018-02-04T07:52:39.876Z,93.09
2018-02-04T07:53:39.845Z,93.66
2018-02-04T07:54:39.830Z,93.04
2018-02-04T07:55:39.808Z,93.42
2018-02-04T07:56:39.793Z,92.66
2018-02-04T07:57:39.770Z,93.23
2018-02-04T07:58:39.751Z,95.40
2018-02-04T07:59:39.740Z,93.89
2018-02-04T08:00:39.719Z,92.76
2018-02-04T08:01:39.696Z,92.66
2018-02-04T08:02:39.680Z,92.43
2018-02-04T08:03:39.667Z,93.42
2018-02-04T08:04:39.638Z,93.04
2018-02-04T08:05:39.622Z,92.66
2018-02-04T08:06:39.602Z,93.42
2018-02-04T08:07:39.584Z,92.10
2018-02-04T08:08:39.564Z,92.10
2018-02-04T08:09:39.552Z,92.29
2018-02-04T08:10:39.527Z,94.65
2018-02-04T08:11:39.511Z,93.80
2018-02-04T08:12:39.531Z,93.70
2018-02-04T08:13:39.474Z,93.61
2018-02-04T08:14:39.463Z,92.57
2018-02-04T08:15:39.437Z,92.94
2018-02-04T08:16:39.416Z,91.24
2018-02-04T08:17:39.406Z,90.86
2018-02-04T08:18:39.379Z,90.58
2018-02-04T08:19:39.364Z,91.00
2018-02-04T08:20:39.347Z,90.25
2018-02-04T08:21:39.323Z,91.48
2018-02-04T08:22:39.305Z,89.68
2018-02-04T08:23:39.286Z,89.20
2018-02-04T08:24:39.286Z,90.34
2018-02-04T08:25:39.250Z,91.76
2018-02-04T08:26:39.232Z,91.10
2018-02-04T08:27:39.214Z,90.81
2018-02-04T08:28:39.196Z,90.15
2018-02-04T08:29:39.182Z,90.44
2018-02-04T08:30:39.160Z,91.76
2018-02-04T08:31:39.152Z,89.96
2018-02-04T08:32:39.122Z,89.11
2018-02-04T08:33:39.102Z,89.68
2018-02-04T08:34:39.084Z,89.39
2018-02-04T08:35:39.072Z,88.64
2018-02-04T08:36:39.049Z,89.39
2018-02-04T08:37:39.031Z,88.54
2018-02-04T08:38:39.016Z,88.21
2018-02-04T08:39:38.998Z,88.31
2018-02-04T08:40:38.974Z,88.21
2018-02-04T08:41:38.954Z,89.16
2018-02-04T08:42:38.937Z,90.11
2018-02-04T08:43:38.919Z,90.06
2018-02-04T08:44:38.898Z,90.20
2018-02-04T08:45:38.883Z,90.39
2018-02-04T08:46:38.865Z,90.72
2018-02-04T08:47:38.850Z,90.06
2018-02-04T08:48:38.830Z,88.73
2018-02-04T08:49:38.819Z,89.20
2018-02-04T08:50:38.793Z,88.82
2018-02-04T08:51:38.770Z,87.98
2018-02-04T08:52:38.754Z,87.69
2018-02-04T08:53:38.741Z,88.17
2018-02-04T08:54:38.717Z,87.98
2018-02-04T08:55:38.701Z,88.54
2018-02-04T08:56:38.680Z,88.07
2018-02-04T08:57:38.662Z,88.35
2018-02-04T08:58:38.650Z,87.31
2018-02-04T08:59:38.632Z,87.50
2018-02-04T09:00:38.607Z,87.59
2018-02-04T09:01:38.595Z,87.31
2018-02-04T09:02:38.572Z,87.98
2018-02-04T09:03:38.554Z,87.59
2018-02-04T09:04:38.535Z,87.69
2018-02-04T09:05:38.517Z,87.40
2018-02-04T09:06:38.499Z,87.40
2018-02-04T09:07:38.484Z,87.21
2018-02-04T09:08:38.466Z,86.27
2018-02-04T09:09:38.446Z,85.89
2018-02-04T09:10:38.428Z,87.31
2018-02-04T09:11:38.412Z,86.36
2018-02-04T09:12:38.393Z,86.31
2018-02-04T09:13:38.381Z,86.22
2018-02-04T09:14:38.357Z,86.60
2018-02-04T09:15:38.343Z,85.74
2018-02-04T09:16:38.328Z,86.12
2018-02-04T09:17:38.310Z,87.07
2018-02-04T09:18:38.288Z,86.12
2018-02-04T09:19:38.277Z,85.84
2018-02-04T09:20:38.255Z,84.99
2018-02-04T09:21:38.234Z,86.12
2018-02-04T09:22:38.221Z,85.93
2018-02-04T09:23:38.203Z,84.13
2018-02-04T09:24:38.182Z,85.17
2018-02-04T09:25:38.168Z,85.08
2018-02-04T09:26:38.148Z,87.07
2018-02-04T09:27:38.134Z,88.59
2018-02-04T09:28:38.113Z,88.49
2018-02-04T09:29:38.096Z,85.41
2018-02-04T09:30:38.081Z,86.88
2018-02-04T09:31:38.068Z,86.74
2018-02-04T09:32:38.053Z,85.22
2018-02-04T09:33:38.028Z,83.70
2018-02-04T09:34:38.017Z,83.23
2018-02-04T09:35:38.001Z,84.55
2018-02-04T09:36:37.975Z,84.08
2018-02-04T09:37:37.961Z,84.65
2018-02-04T09:38:37.943Z,82.47
2018-02-04T09:39:37.926Z,84.36
2018-02-04T09:40:37.907Z,83.32
2018-02-04T09:41:37.896Z,83.42
2018-02-04T09:42:37.874Z,83.13
2018-02-04T09:43:37.859Z,82.18
2018-02-04T09:44:37.839Z,82.56
2018-02-04T09:45:37.837Z,82.43
2018-02-04T09:46:37.812Z,82.66
2018-02-04T09:47:37.792Z,83.37
2018-02-04T09:48:37.773Z,83.75
2018-02-04T09:49:37.755Z,83.28
2018-02-04T09:50:37.747Z,83.56
2018-02-04T09:51:37.722Z,83.18
2018-02-04T09:52:37.708Z,82.52
2018-02-04T09:53:37.690Z,82.24
2018-02-04T09:54:37.671Z,82.05
2018-02-04T09:55:37.654Z,83.37
2018-02-04T09:56:37.638Z,83.04
2018-02-04T09:57:37.624Z,82.56
2018-02-04T09:58:37.623Z,83.04
2018-02-04T09:59:37.586Z,82.47
2018-02-04T10:00:37.576Z,83.70
2018-02-04T10:01:37.553Z,83.70
2018-02-04T10:02:37.537Z,82.75
2018-02-04T10:03:37.529Z,81.62
2018-02-04T10:04:37.504Z,80.86
2018-02-04T10:05:37.493Z,80.38
2018-02-04T10:06:37.473Z,81.43
2018-02-04T10:07:37.465Z,80.38
2018-02-04T10:08:37.464Z,82.94
2018-02-04T10:09:37.423Z,82.85
2018-02-04T10:10:37.405Z,81.24
2018-02-04T10:11:37.390Z,82.28
2018-02-04T10:12:37.370Z,82.51
2018-02-04T10:13:37.354Z,81.66
2018-02-04T10:14:37.336Z,81.09
2018-02-04T10:15:37.322Z,80.52
2018-02-04T10:16:37.306Z,79.95
2018-02-04T10:17:37.296Z,79.00
2018-02-04T10:18:37.274Z,80.71
2018-02-04T10:19:37.254Z,78.72
2018-02-04T10:20:37.238Z,81.56
2018-02-04T10:21:37.225Z,79.38
2018-02-04T10:22:37.213Z,78.05
2018-02-04T10:23:37.190Z,79.47
2018-02-04T10:24:37.190Z,80.71
2018-02-04T10:25:37.156Z,79.57
2018-02-04T10:26:37.141Z,79.19
2018-02-04T10:27:37.125Z,79.66
2018-02-04T10:28:37.107Z,78.24
2018-02-04T10:29:37.091Z,78.15
2018-02-04T10:30:37.082Z,79.71
2018-02-04T10:31:37.062Z,79.33
2018-02-04T10:32:37.048Z,78.85
2018-02-04T10:33:37.034Z,77.71
2018-02-04T10:34:37.011Z,76.48
2018-02-04T10:35:36.996Z,77.43
2018-02-04T10:36:36.981Z,76.67
2018-02-04T10:37:36.966Z,75.81
2018-02-04T10:38:36.950Z,76.01
2018-02-04T10:39:36.936Z,77.52
2018-02-04T10:40:36.917Z,75.81
2018-02-04T10:41:36.903Z,77.05
2018-02-04T10:42:36.891Z,77.52
2018-02-04T10:43:36.870Z,76.48
2018-02-04T10:44:36.859Z,76.29
2018-02-04T10:45:36.839Z,74.58
2018-02-04T10:46:36.822Z,75.24
2018-02-04T10:47:36.808Z,76.04
2018-02-04T10:48:36.789Z,75.53
2018-02-04T10:49:36.785Z,73.82
2018-02-04T10:50:36.757Z,74.81
2018-02-04T10:51:36.744Z,74.77
2018-02-04T10:52:36.726Z,75.95
2018-02-04T10:53:36.714Z,75.19
2018-02-04T10:54:36.695Z,74.33
2018-02-04T10:55:36.724Z,76.71
2018-02-04T10:56:36.662Z,74.05
2018-02-04T10:57:36.648Z,76.04
2018-02-04T10:58:36.638Z,73.29
2018-02-04T10:59:36.622Z,74.15
2018-02-04T11:00:36.600Z,71.86
2018-02-04T11:01:36.585Z,71.67
2018-02-04T11:02:36.572Z,71.48
2018-02-04T11:03:36.560Z,68.35
2018-02-04T11:04:36.544Z,69.40
2018-02-04T11:05:36.526Z,68.07
2018-02-04T11:06:36.517Z,69.78
2018-02-04T11:07:36.490Z,69.59
2018-02-04T11:08:36.478Z,69.78
2018-02-04T11:09:36.462Z,69.87
2018-02-04T11:10:36.447Z,69.68
2018-02-04T11:11:36.475Z,68.64
2018-02-04T11:12:36.415Z,70.54
2018-02-04T11:13:36.402Z,69.59
2018-02-04T11:14:36.384Z,67.21
2018-02-04T11:15:36.371Z,65.79
2018-02-04T11:16:36.359Z,67.12
2018-02-04T11:17:36.347Z,66.17
2018-02-04T11:18:36.324Z,64.56
2018-02-04T11:19:36.307Z,67.40
2018-02-04T11:20:36.296Z,70.76
2018-02-04T11:21:36.282Z,68.10
2018-02-04T11:22:36.267Z,66.49
2018-02-04T11:23:36.246Z,68.39
2018-02-04T11:24:36.240Z,69.05
2018-02-04T11:25:36.219Z,68.67
2018-02-04T11:26:36.202Z,67.06
2018-02-04T11:27:36.186Z,65.92
2018-02-04T11:28:36.171Z,63.92
2018-02-04T11:29:36.159Z,62.12
2018-02-04T11:30:36.142Z,61.45
2018-02-04T11:31:36.132Z,62.50
2018-02-04T11:32:36.111Z,61.36
2018-02-04T11:33:36.104Z,60.13
2018-02-04T11:34:36.084Z,58.70
2018-02-04T11:35:36.067Z,62.59
2018-02-04T11:36:36.114Z,63.64
2018-02-04T11:37:36.039Z,62.78
2018-02-04T11:38:36.023Z,62.21
2018-02-04T11:39:36.014Z,62.88
2018-02-04T11:40:35.993Z,61.39
2018-02-04T11:41:35.979Z,62.34
2018-02-04T11:42:35.974Z,62.43
2018-02-04T11:43:35.950Z,61.96
2018-02-04T11:44:35.945Z,59.01
2018-02-04T11:45:35.921Z,60.35
2018-02-04T11:46:35.909Z,62.43
2018-02-04T11:47:35.894Z,57.87
2018-02-04T11:48:35.878Z,56.83
2018-02-04T11:49:35.864Z,55.30
2018-02-04T11:50:35.851Z,57.21
2018-02-04T11:51:35.843Z,56.83
2018-02-04T11:52:35.824Z,57.21
2018-02-04T11:53:35.812Z,56.63
2018-02-04T11:54:35.794Z,56.45
2018-02-04T11:55:35.786Z,56.83
2018-02-04T11:56:35.764Z,58.73
2018-02-04T11:57:35.752Z,56.67
2018-02-04T11:58:35.740Z,55.33
2018-02-04T11:59:35.725Z,53.72
2018-02-04T12:00:35.710Z,54.19
2018-02-04T12:01:35.695Z,52.96
2018-02-04T12:02:35.683Z,53.91
2018-02-04T12:03:35.671Z,55.24
2018-02-04T12:04:35.653Z,56.38
2018-02-04T12:05:35.647Z,55.90
2018-02-04T12:06:35.626Z,52.67
2018-02-04T12:07:35.613Z,54.00
2018-02-04T12:08:35.607Z,52.10
2018-02-04T12:09:35.586Z,54.00
2018-02-04T12:10:35.579Z,53.91
2018-02-04T12:11:35.559Z,53.15
2018-02-04T12:12:35.550Z,51.82
2018-02-04T12:13:35.533Z,48.56
2018-02-04T12:14:35.518Z,50.39
2018-02-04T12:15:35.505Z,52.26
2018-02-04T12:16:35.491Z,50.37
2018-02-04T12:17:35.478Z,49.32
2018-02-04T12:18:35.468Z,49.44
2018-02-04T12:19:35.452Z,50.58
2018-02-04T12:20:35.436Z,52.76
2018-02-04T12:21:35.424Z,51.79
2018-02-04T12:22:35.412Z,50.46
2018-02-04T12:23:35.397Z,49.41
2018-02-04T12:24:35.389Z,49.13
2018-02-04T12:25:35.380Z,48.56
2018-02-04T12:26:35.357Z,49.79
2018-02-04T12:27:35.346Z,49.10
2018-02-04T12:28:35.331Z,49.01
2018-02-04T12:29:35.318Z,49.10
2018-02-04T12:30:35.302Z,49.49
2018-02-04T12:31:35.298Z,49.58
2018-02-04T12:32:35.275Z,49.58
2018-02-04T12:33:35.262Z,50.62
2018-02-04T12:34:35.252Z,51.01
2018-02-04T12:35:35.236Z,50.98
2018-02-04T12:36:35.218Z,51.64
2018-02-04T12:37:35.211Z,53.92
2018-02-04T12:38:35.190Z,53.47
2018-02-04T12:39:35.176Z,54.99
2018-02-04T12:40:35.169Z,56.04
2018-02-04T12:41:35.148Z,51.76
2018-02-04T12:42:35.138Z,52.33
2018-02-04T12:43:35.121Z,53.26
2018-02-04T12:44:35.106Z,52.12
2018-02-04T12:45:35.096Z,51.64
2018-02-04T12:46:35.075Z,51.74
2018-02-04T12:47:35.063Z,52.59
2018-02-04T12:48:35.052Z,52.50
2018-02-04T12:49:35.038Z,53.26
2018-02-04T12:50:35.023Z,53.64
2018-02-04T12:51:35.005Z,53.54
2018-02-04T12:52:34.992Z,54.11